Time;durP1;ratioP1;P1;durP2;ratioP2;P2;SDS_P1;SDS_P2;PMS_P1;PMS_P2;Temp;Humidity;BMP_temperature;BMP_pressure;BME280_temperature;BME280_humidity;BME280_pressure;Samples;Min_cycle;Max_cycle;Signal;HPM_P1;HPM_P2
2022/05/31 00:01:30;;;;;;;1.67;1.58;;;9.70;99.90;;;;;;5051317;28;20052;-57
2022/05/31 00:03:56;;;;;;;1.55;1.40;;;9.70;99.90;;;;;;5048543;28;20043;-58
2022/05/31 00:06:22;;;;;;;1.27;1.23;;;9.70;99.90;;;;;;5050827;28;20477;-56
2022/05/31 00:08:48;;;;;;;1.50;1.40;;;9.60;99.90;;;;;;5054221;28;20055;-57
2022/05/31 00:11:14;;;;;;;1.67;1.45;;;9.60;99.90;;;;;;5051487;28;20052;-55
2022/05/31 00:13:40;;;;;;;1.90;1.70;;;9.50;99.90;;;;;;5045606;28;20040;-56
2022/05/31 00:16:07;;;;;;;2.80;1.85;;;9.50;99.90;;;;;;5053240;28;20076;-56
2022/05/31 00:18:33;;;;;;;1.77;1.67;;;9.50;99.90;;;;;;5052146;28;20479;-57
2022/05/31 00:20:59;;;;;;;1.92;1.67;;;9.50;99.90;;;;;;5032718;28;20130;-57
2022/05/31 00:23:25;;;;;;;1.73;1.63;;;9.40;99.90;;;;;;5050439;28;20041;-56
2022/05/31 00:25:51;;;;;;;2.30;1.58;;;9.40;99.90;;;;;;5050912;28;20141;-55
2022/05/31 00:28:17;;;;;;;2.75;1.83;;;9.40;99.90;;;;;;5054198;28;20045;-57
2022/05/31 00:30:42;;;;;;;2.50;1.60;;;9.40;99.90;;;;;;5054739;28;20052;-57
2022/05/31 00:33:10;;;;;;;2.10;1.75;;;9.40;99.90;;;;;;5058639;28;20080;-56
2022/05/31 00:35:40;;;;;;;7.22;1.90;;;9.40;99.90;;;;;;5051921;28;20049;-57
2022/05/31 00:38:08;;;;;;;2.10;1.90;;;9.40;99.90;;;;;;5054660;28;20043;-57
2022/05/31 00:40:36;;;;;;;4.95;1.42;;;9.40;99.90;;;;;;5054128;28;20051;-56
2022/05/31 00:43:08;;;;;;;1.30;1.20;;;9.30;99.90;;;;;;5054265;28;20148;-57
2022/05/31 00:45:36;;;;;;;1.38;1.27;;;9.30;99.90;;;;;;5058859;28;20127;-57
2022/05/31 00:48:05;;;;;;;2.40;2.03;;;9.30;99.90;;;;;;5052418;28;20150;-55
2022/05/31 00:50:37;;;;;;;1.98;1.60;;;9.30;99.90;;;;;;5052819;28;20175;-57
2022/05/31 00:53:09;;;;;;;1.75;1.65;;;9.30;99.90;;;;;;5052058;28;20117;-56
2022/05/31 00:55:50;;;;;;;1.73;1.63;;;9.30;99.90;;;;;;5054596;28;20075;-56
2022/05/31 00:58:21;;;;;;;2.85;1.60;;;9.30;99.90;;;;;;5054077;28;20041;-56
2022/05/31 01:00:48;;;;;;;1.80;1.70;;;9.30;99.90;;;;;;5052312;28;20055;-55
2022/05/31 01:03:17;;;;;;;2.63;1.40;;;9.30;99.90;;;;;;5054549;28;20074;-57
2022/05/31 01:05:43;;;;;;;1.88;1.60;;;9.30;99.90;;;;;;5050865;28;20052;-57
2022/05/31 01:08:10;;;;;;;1.58;1.48;;;9.30;99.90;;;;;;5054153;28;20122;-56
2022/05/31 01:10:36;;;;;;;1.90;1.58;;;9.30;99.90;;;;;;5056359;28;20040;-56
2022/05/31 01:13:03;;;;;;;1.60;1.50;;;9.30;99.90;;;;;;5057763;28;20047;-56
2022/05/31 01:15:29;;;;;;;2.10;1.63;;;9.30;99.90;;;;;;5054207;28;20037;-56
2022/05/31 01:17:54;;;;;;;1.88;1.77;;;9.30;99.90;;;;;;5050472;28;20043;-56
2022/05/31 01:20:21;;;;;;;1.80;1.70;;;9.30;99.90;;;;;;5056446;28;20040;-56
2022/05/31 01:22:53;;;;;;;2.75;2.33;;;9.40;99.90;;;;;;5052983;28;20052;-57
2022/05/31 01:25:25;;;;;;;2.72;2.42;;;9.40;99.90;;;;;;5054424;28;20123;-56
2022/05/31 01:28:12;;;;;;;3.20;2.90;;;9.40;99.90;;;;;;5054418;28;20109;-56
2022/05/31 01:30:51;;;;;;;6.35;2.70;;;9.40;99.90;;;;;;5054677;28;20388;-57
2022/05/31 01:33:51;;;;;;;3.33;3.00;;;9.40;99.90;;;;;;5050354;28;20057;-56
2022/05/31 01:36:25;;;;;;;4.90;4.07;;;9.40;99.90;;;;;;5050110;28;20048;-56
2022/05/31 01:39:04;;;;;;;9.05;4.40;;;9.50;99.90;;;;;;5056434;28;20049;-57
2022/05/31 01:42:02;;;;;;;5.57;4.10;;;9.50;99.90;;;;;;5050763;28;20048;-57
2022/05/31 01:44:33;;;;;;;4.38;3.97;;;9.50;99.90;;;;;;5051284;28;20052;-57
2022/05/31 01:47:01;;;;;;;5.65;4.50;;;9.50;99.90;;;;;;5051537;28;20055;-57
2022/05/31 01:49:35;;;;;;;6.13;5.10;;;9.50;99.90;;;;;;5052387;28;20406;-55
2022/05/31 01:52:02;;;;;;;6.40;4.90;;;9.60;99.90;;;;;;5051844;28;20047;-57
2022/05/31 01:54:29;;;;;;;5.63;4.50;;;9.60;99.90;;;;;;5055798;28;20037;-57
2022/05/31 01:57:00;;;;;;;5.53;4.90;;;9.60;99.90;;;;;;5056297;28;20170;-57
2022/05/31 01:59:31;;;;;;;5.93;4.95;;;9.60;99.90;;;;;;5050578;28;20053;-57
2022/05/31 02:01:58;;;;;;;6.47;4.57;;;9.70;99.90;;;;;;5045662;28;20048;-56
2022/05/31 02:04:25;;;;;;;6.63;4.60;;;9.70;99.90;;;;;;5042787;28;20044;-56
2022/05/31 02:07:10;;;;;;;5.22;4.72;;;9.70;99.90;;;;;;5054678;28;20036;-56
2022/05/31 02:09:37;;;;;;;6.07;4.28;;;9.70;99.90;;;;;;5052581;28;20055;-56
2022/05/31 02:12:07;;;;;;;5.38;3.92;;;9.70;99.90;;;;;;5052533;28;20475;-55
2022/05/31 02:14:34;;;;;;;6.05;4.30;;;9.70;99.90;;;;;;5058832;28;20101;-56
2022/05/31 02:17:00;;;;;;;6.38;4.68;;;9.70;99.90;;;;;;5059274;28;20457;-56
2022/05/31 02:19:27;;;;;;;5.38;3.90;;;9.70;99.90;;;;;;5062185;28;20052;-57
2022/05/31 02:21:56;;;;;;;4.22;3.83;;;9.70;99.90;;;;;;5055365;28;20483;-57
2022/05/31 02:24:23;;;;;;;5.88;3.85;;;9.70;99.90;;;;;;5050552;28;20558;-56
2022/05/31 02:26:50;;;;;;;4.63;4.00;;;9.70;99.90;;;;;;5052508;28;20102;-56
2022/05/31 02:29:20;;;;;;;5.18;4.03;;;9.70;99.90;;;;;;5053913;28;20044;-57
2022/05/31 02:31:47;;;;;;;5.65;4.00;;;9.70;99.90;;;;;;5051005;28;20045;-55
2022/05/31 02:34:16;;;;;;;4.90;3.90;;;9.80;99.90;;;;;;5051112;28;20515;-57
2022/05/31 02:36:42;;;;;;;4.63;3.80;;;9.80;99.90;;;;;;5055188;28;20076;-57
2022/05/31 02:39:08;;;;;;;6.10;4.30;;;9.80;99.90;;;;;;5052990;28;20159;-56
2022/05/31 02:41:34;;;;;;;6.97;4.25;;;9.80;99.90;;;;;;5055639;28;20131;-57
2022/05/31 02:43:59;;;;;;;6.32;4.57;;;9.80;99.90;;;;;;5052316;28;20040;-57
2022/05/31 02:46:25;;;;;;;5.82;4.15;;;9.80;99.90;;;;;;5055280;28;20080;-56
2022/05/31 02:48:51;;;;;;;6.35;4.05;;;9.80;99.90;;;;;;5045844;28;20054;-57
2022/05/31 02:51:17;;;;;;;4.63;3.80;;;9.80;99.90;;;;;;5053118;28;20173;-55
2022/05/31 02:53:43;;;;;;;4.18;3.78;;;9.80;99.90;;;;;;5046744;28;20641;-56
2022/05/31 02:56:10;;;;;;;3.85;3.50;;;9.90;99.90;;;;;;5053554;28;20036;-56
2022/05/31 02:58:36;;;;;;;4.63;3.90;;;9.80;99.90;;;;;;5049164;28;20040;-55
2022/05/31 03:01:17;;;;;;;5.55;3.92;;;9.90;99.90;;;;;;5048922;28;20040;-57
2022/05/31 03:03:43;;;;;;;4.80;3.90;;;9.90;99.90;;;;;;5054995;28;20120;-57
2022/05/31 03:06:08;;;;;;;5.32;3.60;;;9.80;99.90;;;;;;5049447;28;20163;-57
2022/05/31 03:08:34;;;;;;;4.50;3.75;;;9.90;99.90;;;;;;5046531;28;20193;-56
2022/05/31 03:11:01;;;;;;;5.28;3.38;;;9.90;99.90;;;;;;5050518;28;20534;-57
2022/05/31 03:13:29;;;;;;;3.80;3.33;;;9.90;99.90;;;;;;5053993;28;20048;-57
2022/05/31 03:16:00;;;;;;;4.07;3.67;;;9.90;99.90;;;;;;5053905;28;20063;-57
2022/05/31 03:18:33;;;;;;;4.88;3.45;;;9.90;99.90;;;;;;5049119;28;20068;-57
2022/05/31 03:21:04;;;;;;;3.70;3.40;;;9.90;99.90;;;;;;5054310;28;20072;-57
2022/05/31 03:23:39;;;;;;;5.10;3.38;;;9.90;99.90;;;;;;5051555;28;20053;-56
2022/05/31 03:26:08;;;;;;;3.55;3.25;;;9.90;99.90;;;;;;5051516;28;20130;-57
2022/05/31 03:28:35;;;;;;;3.95;3.20;;;9.90;99.90;;;;;;5056510;28;20041;-56
2022/05/31 03:31:02;;;;;;;5.40;3.40;;;9.90;99.90;;;;;;5051304;28;20088;-56
2022/05/31 03:33:28;;;;;;;4.35;3.58;;;9.90;99.90;;;;;;5051910;28;20117;-57
2022/05/31 03:35:54;;;;;;;4.65;3.80;;;9.90;99.90;;;;;;5051816;28;20056;-56
2022/05/31 03:38:20;;;;;;;6.60;3.85;;;9.90;99.90;;;;;;5055138;28;20043;-57
2022/05/31 03:40:58;;;;;;;4.03;3.30;;;9.90;99.90;;;;;;5053584;28;20044;-56
2022/05/31 03:43:30;;;;;;;5.63;3.58;;;9.90;99.90;;;;;;5051882;28;20111;-57
2022/05/31 03:45:56;;;;;;;5.53;3.50;;;9.90;99.90;;;;;;5053738;28;20472;-56
2022/05/31 03:48:23;;;;;;;4.75;3.60;;;9.90;99.90;;;;;;5048920;28;20316;-56
2022/05/31 03:51:19;;;;;;;4.72;3.80;;;10.00;99.90;;;;;;5061070;28;20048;-56
2022/05/31 03:53:44;;;;;;;7.72;3.72;;;10.00;99.90;;;;;;5038853;28;20052;-56
2022/05/31 03:56:12;;;;;;;5.53;3.92;;;10.00;99.90;;;;;;5049726;28;20047;-55
2022/05/31 03:58:39;;;;;;;5.18;3.70;;;10.00;99.90;;;;;;5038153;28;20060;-56
2022/05/31 04:01:06;;;;;;;6.07;4.13;;;10.00;99.90;;;;;;5050180;28;20049;-57
2022/05/31 04:03:32;;;;;;;5.25;3.60;;;10.00;99.90;;;;;;5061006;28;20044;-56
2022/05/31 04:05:58;;;;;;;4.53;4.00;;;10.00;99.90;;;;;;5056022;28;20047;-56
2022/05/31 04:08:25;;;;;;;6.28;4.47;;;10.00;99.90;;;;;;5057340;28;20173;-56
2022/05/31 04:10:54;;;;;;;5.82;4.80;;;10.10;99.90;;;;;;5053500;28;20048;-57
2022/05/31 04:13:20;;;;;;;8.30;4.80;;;10.10;99.90;;;;;;5054086;28;20049;-55
2022/05/31 04:15:46;;;;;;;5.88;4.50;;;10.10;99.90;;;;;;5056573;28;20051;-56
2022/05/31 04:18:12;;;;;;;7.47;4.80;;;10.10;99.90;;;;;;5056849;28;20037;-56
2022/05/31 04:20:41;;;;;;;8.70;4.50;;;10.10;99.90;;;;;;5034800;28;20036;-56
2022/05/31 04:26:05;;;;;;;5.60;4.60;;;10.20;99.90;;;;;;5055079;28;20064;-56
2022/05/31 04:28:31;;;;;;;6.20;4.28;;;10.20;99.90;;;;;;5054991;28;20063;-55
2022/05/31 04:30:57;;;;;;;6.32;4.43;;;10.20;99.90;;;;;;5057444;28;20506;-56
2022/05/31 04:33:23;;;;;;;6.53;5.13;;;10.20;99.90;;;;;;5051520;28;20109;-56
2022/05/31 04:35:58;;;;;;;6.30;4.63;;;10.20;99.90;;;;;;5058908;28;20530;-57
2022/05/31 04:38:24;;;;;;;5.43;4.82;;;10.30;99.90;;;;;;5052671;28;20055;-57
2022/05/31 04:40:50;;;;;;;7.25;5.35;;;10.30;99.90;;;;;;5055264;28;20475;-55
2022/05/31 04:43:16;;;;;;;9.88;5.40;;;10.30;99.90;;;;;;5044644;28;20044;-57
2022/05/31 04:45:42;;;;;;;6.18;5.10;;;10.30;99.90;;;;;;5056064;28;20702;-57
2022/05/31 04:48:08;;;;;;;10.13;5.45;;;10.30;99.90;;;;;;5055219;28;20052;-56
2022/05/31 04:50:35;;;;;;;7.75;5.13;;;10.30;99.90;;;;;;5054245;28;20090;-57
2022/05/31 04:53:01;;;;;;;6.53;5.50;;;10.30;99.90;;;;;;5051103;28;20497;-56
2022/05/31 04:55:29;;;;;;;7.88;5.25;;;10.30;99.90;;;;;;5054315;28;21439;-56
2022/05/31 04:57:55;;;;;;;8.15;5.22;;;10.40;99.90;;;;;;5052894;28;20040;-55
2022/05/31 05:00:21;;;;;;;9.23;5.47;;;10.40;99.90;;;;;;5055618;28;20637;-56
2022/05/31 05:02:47;;;;;;;11.18;5.28;;;10.40;99.90;;;;;;5053726;28;20164;-56
2022/05/31 05:05:13;;;;;;;8.23;5.80;;;10.40;99.90;;;;;;5054659;28;20048;-57
2022/05/31 05:07:39;;;;;;;9.32;5.95;;;10.40;99.90;;;;;;5050632;28;20056;-55
2022/05/31 05:10:06;;;;;;;6.40;5.53;;;10.50;99.90;;;;;;5056646;28;20052;-56
2022/05/31 05:12:32;;;;;;;9.80;5.32;;;10.50;99.90;;;;;;5055203;28;20048;-56
2022/05/31 05:14:58;;;;;;;10.52;6.03;;;10.50;99.90;;;;;;5053007;28;20051;-55
2022/05/31 05:17:25;;;;;;;10.32;6.03;;;10.50;99.90;;;;;;5052773;28;20368;-55
2022/05/31 05:19:51;;;;;;;8.93;6.45;;;10.60;99.90;;;;;;5051272;28;20040;-56
2022/05/31 05:22:17;;;;;;;8.38;5.90;;;10.60;99.90;;;;;;5051143;28;20119;-55
2022/05/31 05:24:43;;;;;;;8.60;6.00;;;10.60;99.90;;;;;;5054009;28;20040;-55
2022/05/31 05:27:09;;;;;;;7.78;6.10;;;10.70;99.90;;;;;;5053344;28;20055;-56
2022/05/31 05:32:19;;;;;;;9.25;6.18;;;10.70;99.90;;;;;;5057743;28;20539;-56
2022/05/31 05:34:55;;;;;;;9.95;6.20;;;10.80;99.90;;;;;;5056169;28;20056;-56
2022/05/31 05:37:24;;;;;;;14.55;5.93;;;10.90;99.90;;;;;;5051890;28;20130;-55
2022/05/31 05:39:50;;;;;;;9.90;6.30;;;10.90;99.90;;;;;;5057009;28;20518;-56
2022/05/31 05:42:16;;;;;;;8.23;6.28;;;11.00;99.90;;;;;;5061587;28;20040;-57
2022/05/31 05:44:42;;;;;;;7.75;6.30;;;11.00;99.90;;;;;;5053859;28;20052;-55
2022/05/31 05:47:10;;;;;;;9.00;6.32;;;11.00;99.90;;;;;;5057229;28;20063;-56
2022/05/31 05:49:36;;;;;;;7.32;6.53;;;11.00;99.90;;;;;;5055998;28;20491;-55
2022/05/31 05:52:07;;;;;;;9.02;6.70;;;11.10;99.90;;;;;;5050950;28;20052;-56
2022/05/31 05:54:33;;;;;;;11.80;6.93;;;11.20;99.90;;;;;;5057446;28;20115;-56
2022/05/31 05:56:59;;;;;;;8.45;6.45;;;11.20;99.90;;;;;;5054741;28;20044;-57
2022/05/31 05:59:25;;;;;;;8.30;6.28;;;11.20;99.90;;;;;;5057807;28;20051;-56
2022/05/31 06:02:05;;;;;;;8.25;6.82;;;11.30;99.90;;;;;;5058783;28;20233;-56
2022/05/31 06:04:57;;;;;;;8.85;6.50;;;11.30;99.90;;;;;;5052074;28;20044;-56
2022/05/31 06:07:33;;;;;;;10.43;6.20;;;11.30;99.90;;;;;;5051531;28;20106;-57
2022/05/31 06:10:08;;;;;;;8.10;6.20;;;11.40;99.90;;;;;;5050062;28;20131;-56
2022/05/31 06:12:40;;;;;;;6.60;5.78;;;11.40;99.90;;;;;;5047573;28;20134;-55
2022/05/31 06:15:12;;;;;;;8.47;5.80;;;11.50;99.90;;;;;;5052781;28;20079;-53
2022/05/31 06:17:43;;;;;;;9.45;6.03;;;11.50;99.90;;;;;;5061776;28;20298;-53
2022/05/31 06:20:10;;;;;;;10.40;5.55;;;11.50;99.90;;;;;;5064317;28;20036;-53
2022/05/31 06:22:39;;;;;;;8.02;6.13;;;11.60;99.90;;;;;;5061662;28;20052;-53
2022/05/31 06:25:05;;;;;;;8.50;6.20;;;11.70;99.90;;;;;;5059234;28;20055;-54
2022/05/31 06:27:31;;;;;;;7.30;5.60;;;11.70;99.90;;;;;;5063350;28;20055;-54
2022/05/31 06:29:57;;;;;;;7.40;5.45;;;11.80;99.90;;;;;;5064433;28;20434;-50
2022/05/31 06:32:23;;;;;;;8.30;5.78;;;11.90;99.90;;;;;;5062952;28;20049;-55
2022/05/31 06:34:49;;;;;;;7.00;5.35;;;12.00;99.90;;;;;;5063591;28;20102;-53
2022/05/31 06:37:16;;;;;;;9.23;5.40;;;12.00;99.90;;;;;;5061293;28;20051;-55
2022/05/31 06:39:44;;;;;;;8.27;5.90;;;12.10;99.90;;;;;;5058984;28;20487;-53
2022/05/31 06:42:10;;;;;;;7.95;5.60;;;12.20;99.90;;;;;;5057892;28;20036;-54
2022/05/31 06:44:39;;;;;;;10.00;5.90;;;12.20;99.90;;;;;;5063777;28;20036;-53
2022/05/31 06:47:05;;;;;;;9.65;6.28;;;12.30;99.90;;;;;;5060607;28;20552;-55
2022/05/31 06:49:33;;;;;;;8.73;6.05;;;12.30;99.90;;;;;;5061307;28;20478;-54
2022/05/31 06:57:37;;;;;;;5.57;4.97;;;12.60;99.90;;;;;;5061498;28;20059;-54
2022/05/31 07:00:08;;;;;;;9.23;5.05;;;12.60;99.90;;;;;;5060362;28;20146;-54
2022/05/31 07:02:35;;;;;;;7.50;4.90;;;12.70;99.90;;;;;;5060665;28;20040;-53
2022/05/31 07:05:01;;;;;;;9.68;4.80;;;12.80;99.90;;;;;;5062128;28;20559;-53
2022/05/31 07:07:26;;;;;;;6.75;5.10;;;12.80;99.90;;;;;;5058570;28;20041;-54
2022/05/31 07:09:53;;;;;;;10.50;5.20;;;12.90;99.90;;;;;;5022250;28;20518;-54
2022/05/31 07:12:20;;;;;;;6.55;4.43;;;12.90;99.90;;;;;;5059370;28;20051;-53
2022/05/31 07:14:46;;;;;;;6.88;5.10;;;13.00;99.90;;;;;;5056936;28;20052;-55
2022/05/31 07:17:12;;;;;;;10.82;4.85;;;13.00;99.90;;;;;;5058969;28;20051;-54
2022/05/31 07:19:39;;;;;;;8.55;4.75;;;13.10;99.90;;;;;;5061586;28;20494;-55
2022/05/31 07:22:05;;;;;;;9.45;4.63;;;13.20;99.90;;;;;;5056554;28;20051;-51
2022/05/31 07:24:31;;;;;;;8.75;4.93;;;13.30;99.90;;;;;;5060696;28;20044;-53
2022/05/31 07:26:58;;;;;;;6.30;4.80;;;13.40;99.90;;;;;;5059267;28;20621;-55
2022/05/31 07:29:24;;;;;;;7.80;4.93;;;13.40;99.90;;;;;;5055766;28;20502;-54
2022/05/31 07:31:50;;;;;;;6.60;5.03;;;13.50;99.90;;;;;;5057111;28;20057;-54
2022/05/31 07:34:17;;;;;;;8.25;5.03;;;13.50;99.90;;;;;;5057220;28;20529;-54
2022/05/31 07:36:44;;;;;;;6.60;4.65;;;13.60;99.90;;;;;;5056650;28;20660;-55
2022/05/31 07:39:14;;;;;;;6.97;4.38;;;13.60;99.90;;;;;;5068392;28;20041;-53
2022/05/31 07:41:40;;;;;;;5.72;4.57;;;13.70;99.90;;;;;;5065343;28;20053;-54
2022/05/31 07:44:07;;;;;;;10.93;4.68;;;13.80;99.90;;;;;;5066186;28;20492;-53
2022/05/31 07:46:32;;;;;;;10.60;4.95;;;13.90;99.90;;;;;;5058893;28;20087;-53
2022/05/31 07:48:59;;;;;;;10.95;5.15;;;14.00;99.90;;;;;;5063058;28;20510;-53
2022/05/31 07:51:27;;;;;;;7.55;4.45;;;14.20;99.90;;;;;;5060500;28;20055;-55
2022/05/31 07:53:53;;;;;;;5.65;4.40;;;14.30;99.90;;;;;;5066430;28;20467;-55
2022/05/31 07:56:19;;;;;;;7.03;4.78;;;14.50;99.90;;;;;;5064039;28;20044;-55
2022/05/31 07:58:46;;;;;;;8.10;4.65;;;14.70;99.90;;;;;;5065576;28;20511;-55
2022/05/31 08:01:16;;;;;;;6.97;4.60;;;14.80;99.90;;;;;;5059949;28;20082;-52
2022/05/31 08:03:42;;;;;;;8.05;5.10;;;15.00;99.90;;;;;;5066499;28;20486;-55
2022/05/31 08:06:14;;;;;;;9.35;5.20;;;15.20;99.90;;;;;;5062825;28;20090;-55
2022/05/31 08:08:40;;;;;;;7.78;5.20;;;15.30;99.90;;;;;;5061176;28;20056;-54
2022/05/31 08:11:08;;;;;;;9.07;4.32;;;15.40;99.90;;;;;;5079557;28;20507;-53
2022/05/31 08:13:34;;;;;;;8.50;4.25;;;15.40;99.90;;;;;;5062426;28;20036;-55
2022/05/31 08:16:02;;;;;;;8.98;4.53;;;15.60;99.90;;;;;;5063643;28;20047;-52
2022/05/31 08:18:28;;;;;;;8.00;3.90;;;15.70;99.90;;;;;;5062893;28;20044;-54
2022/05/31 08:21:01;;;;;;;9.45;4.15;;;15.90;99.90;;;;;;5024939;28;20098;-54
2022/05/31 08:23:28;;;;;;;8.32;4.10;;;16.10;99.90;;;;;;5044264;28;20045;-54
2022/05/31 08:25:54;;;;;;;8.23;3.80;;;16.30;99.60;;;;;;5062903;28;20036;-55
2022/05/31 08:28:21;;;;;;;7.20;4.20;;;16.40;99.30;;;;;;5062590;28;20403;-56
2022/05/31 08:30:50;;;;;;;8.95;4.57;;;16.70;99.10;;;;;;5062260;28;20123;-53
2022/05/31 08:33:16;;;;;;;11.35;4.35;;;16.90;99.00;;;;;;5060535;28;20478;-54
2022/05/31 08:35:42;;;;;;;10.98;4.35;;;17.00;98.50;;;;;;5059385;28;20041;-54
2022/05/31 08:38:07;;;;;;;5.90;3.72;;;17.20;97.90;;;;;;5061600;28;20721;-54
2022/05/31 08:40:58;;;;;;;7.32;3.60;;;17.30;98.00;;;;;;5064655;28;20045;-55
2022/05/31 08:43:36;;;;;;;7.80;4.05;;;17.40;98.30;;;;;;5058328;28;20079;-53
2022/05/31 08:46:07;;;;;;;5.95;3.80;;;17.40;97.80;;;;;;5064236;28;20048;-53
2022/05/31 08:48:39;;;;;;;9.57;3.83;;;17.50;97.80;;;;;;5061502;28;20078;-54
2022/05/31 08:56:56;;;;;;;5.43;3.10;;;17.50;96.20;;;;;;5064088;28;20048;-56
2022/05/31 08:59:41;;;;;;;6.70;3.40;;;17.50;95.90;;;;;;5062516;28;20073;-55
2022/05/31 09:02:16;;;;;;;6.30;3.17;;;17.60;96.00;;;;;;5062406;28;20071;-55
2022/05/31 09:04:45;;;;;;;8.77;3.20;;;17.60;95.50;;;;;;5062977;28;20036;-56
2022/05/31 09:07:25;;;;;;;6.65;2.97;;;17.60;95.10;;;;;;5062364;28;20525;-52
2022/05/31 09:09:59;;;;;;;5.32;3.40;;;17.60;94.90;;;;;;5062415;28;20049;-55
2022/05/31 09:12:45;;;;;;;4.93;2.80;;;17.50;94.70;;;;;;5060837;28;20112;-55
2022/05/31 09:15:23;;;;;;;4.28;3.22;;;17.50;95.20;;;;;;5061402;28;20495;-54
2022/05/31 09:18:17;;;;;;;7.95;3.83;;;17.50;95.40;;;;;;5061663;28;20495;-55
2022/05/31 09:20:46;;;;;;;7.80;3.90;;;17.60;96.20;;;;;;5062387;28;20037;-55
2022/05/31 09:23:20;;;;;;;6.40;3.00;;;17.80;95.70;;;;;;5033779;28;20490;-54
2022/05/31 09:25:50;;;;;;;3.60;2.90;;;17.90;94.70;;;;;;5057467;28;20037;-55
2022/05/31 09:28:57;;;;;;;8.77;3.38;;;18.10;93.70;;;;;;5059694;28;20045;-51
2022/05/31 09:31:55;;;;;;;7.40;2.92;;;18.10;93.20;;;;;;5011946;28;20613;-54
2022/05/31 09:34:24;;;;;;;4.70;3.10;;;18.20;93.80;;;;;;5054133;28;20049;-56
2022/05/31 09:37:10;;;;;;;9.10;3.40;;;18.50;93.00;;;;;;5058672;28;20045;-54
2022/05/31 09:40:13;;;;;;;4.45;2.78;;;18.70;92.60;;;;;;5056401;28;20127;-54
2022/05/31 09:42:56;;;;;;;6.35;3.10;;;18.80;92.20;;;;;;5062672;28;20048;-55
2022/05/31 09:45:23;;;;;;;4.75;2.60;;;18.80;91.10;;;;;;5060444;28;20045;-55
2022/05/31 09:47:50;;;;;;;3.95;2.00;;;18.70;90.40;;;;;;5061927;28;20052;-56
2022/05/31 09:50:28;;;;;;;4.75;2.85;;;18.60;88.70;;;;;;5054512;28;20048;-55
2022/05/31 09:52:57;;;;;;;3.85;2.35;;;18.60;84.70;;;;;;5063577;28;20567;-56
2022/05/31 09:58:24;;;;;;;5.30;3.17;;;18.80;86.40;;;;;;5060529;28;20044;-52
2022/05/31 10:01:13;;;;;;;4.22;2.97;;;18.80;86.30;;;;;;5056432;28;20048;-55
2022/05/31 10:03:48;;;;;;;4.78;3.40;;;18.90;86.00;;;;;;5051673;28;20053;-56
2022/05/31 10:06:26;;;;;;;7.22;3.20;;;18.90;84.60;;;;;;5055304;28;20044;-54
2022/05/31 10:08:54;;;;;;;6.40;3.47;;;18.80;83.70;;;;;;5058735;28;20602;-55
2022/05/31 10:11:32;;;;;;;6.30;3.50;;;18.70;82.40;;;;;;5064847;28;20036;-54
2022/05/31 10:14:04;;;;;;;9.13;3.30;;;18.60;80.50;;;;;;5058364;28;20132;-55
2022/05/31 10:16:35;;;;;;;6.53;3.67;;;18.50;80.00;;;;;;5065227;28;20040;-54
2022/05/31 10:19:10;;;;;;;11.55;3.90;;;18.30;80.20;;;;;;5063623;28;20045;-55
2022/05/31 10:21:40;;;;;;;8.07;4.03;;;18.30;81.40;;;;;;5061992;28;20395;-56
2022/05/31 10:24:19;;;;;;;9.27;4.10;;;18.20;80.00;;;;;;5063633;28;20113;-53
2022/05/31 10:27:04;;;;;;;15.88;5.65;;;18.10;78.30;;;;;;5066093;28;20053;-56
2022/05/31 10:29:33;;;;;;;11.02;4.55;;;18.10;79.10;;;;;;5066540;28;20398;-55
2022/05/31 10:32:19;;;;;;;8.60;3.70;;;18.20;78.60;;;;;;5063698;28;20447;-55
2022/05/31 10:34:47;;;;;;;5.10;3.25;;;18.20;77.70;;;;;;5068793;28;20140;-54
2022/05/31 10:37:26;;;;;;;8.07;3.15;;;18.30;77.40;;;;;;5065682;28;20051;-55
2022/05/31 10:40:15;;;;;;;27.92;3.63;;;18.30;77.40;;;;;;5065433;28;20106;-55
2022/05/31 10:42:44;;;;;;;4.40;2.60;;;18.30;77.00;;;;;;5066511;28;20051;-55
2022/05/31 10:45:22;;;;;;;6.75;3.20;;;18.30;77.50;;;;;;5060130;28;20051;-55
2022/05/31 10:47:48;;;;;;;4.57;2.92;;;18.40;76.00;;;;;;5065998;28;20044;-55
2022/05/31 10:50:14;;;;;;;5.60;2.92;;;18.30;75.30;;;;;;5063130;28;20048;-55
2022/05/31 10:53:09;;;;;;;7.13;3.25;;;18.20;74.30;;;;;;5058682;28;20123;-54
2022/05/31 10:55:41;;;;;;;5.72;3.00;;;18.20;74.30;;;;;;5064285;28;20044;-56
2022/05/31 10:58:40;;;;;;;7.63;3.10;;;18.20;75.70;;;;;;5064033;28;20385;-53
2022/05/31 11:01:21;;;;;;;8.68;3.00;;;18.20;74.90;;;;;;5050665;28;20052;-55
2022/05/31 11:04:14;;;;;;;6.75;3.13;;;18.10;75.10;;;;;;5063075;28;20518;-55
2022/05/31 11:06:59;;;;;;;5.03;3.10;;;18.10;75.50;;;;;;5063162;28;20044;-54
2022/05/31 11:12:12;;;;;;;6.43;2.65;;;18.00;73.50;;;;;;5066206;28;20048;-55
2022/05/31 11:14:53;;;;;;;5.07;2.60;;;17.90;72.90;;;;;;5064986;28;20051;-54
2022/05/31 11:17:40;;;;;;;4.93;2.45;;;17.80;71.70;;;;;;5060979;28;20059;-55
2022/05/31 11:20:41;;;;;;;5.43;2.78;;;17.80;71.80;;;;;;5067226;28;20140;-54
2022/05/31 11:23:26;;;;;;;5.13;2.70;;;17.90;72.40;;;;;;5063926;28;20058;-56
2022/05/31 11:25:58;;;;;;;6.25;2.95;;;18.00;72.70;;;;;;5065732;28;20055;-55
2022/05/31 11:28:30;;;;;;;;;;;18.00;71.30;;;;;;5063043;28;20090;-54
2022/05/31 11:31:33;;;;;;;7.10;3.50;;;18.10;71.70;;;;;;5062813;28;19920;-55
2022/05/31 11:34:11;;;;;;;10.80;4.25;;;18.20;72.80;;;;;;5065030;28;20061;-53
2022/05/31 11:37:02;;;;;;;4.20;3.10;;;18.40;73.80;;;;;;5063275;28;20063;-55
2022/05/31 11:39:48;;;;;;;4.15;2.33;;;18.60;70.40;;;;;;5066132;28;20391;-55
2022/05/31 11:42:26;;;;;;;4.97;2.60;;;18.80;69.70;;;;;;5053256;28;20135;-54
2022/05/31 11:45:21;;;;;;;5.53;2.55;;;18.90;68.30;;;;;;5067384;28;20055;-54
2022/05/31 11:48:06;;;;;;;4.55;2.40;;;19.10;68.10;;;;;;5046935;28;20079;-53
2022/05/31 11:50:50;;;;;;;5.93;2.33;;;19.20;67.10;;;;;;5061588;28;20052;-55
2022/05/31 11:53:22;;;;;;;5.15;2.65;;;19.30;67.30;;;;;;5063955;28;20048;-55
2022/05/31 11:55:54;;;;;;;5.47;2.70;;;19.30;65.00;;;;;;5066626;28;20051;-54
2022/05/31 11:59:01;;;;;;;4.90;2.92;;;19.30;66.20;;;;;;5062818;28;20387;-54
2022/05/31 12:01:38;;;;;;;7.90;2.75;;;19.30;65.90;;;;;;4980629;28;20052;-52
2022/05/31 12:04:25;;;;;;;3.60;2.92;;;19.30;65.20;;;;;;5053771;28;20040;-53
2022/05/31 12:07:04;;;;;;;5.85;3.47;;;19.30;65.30;;;;;;5060712;28;20536;-54
2022/05/31 12:09:46;;;;;;;5.95;3.17;;;19.50;64.90;;;;;;5061714;28;20049;-54
2022/05/31 12:12:15;;;;;;;6.47;3.10;;;19.80;65.00;;;;;;5062725;28;20487;-57
2022/05/31 12:14:47;;;;;;;6.43;2.97;;;20.00;64.60;;;;;;5059733;28;20352;-57
2022/05/31 12:17:16;;;;;;;;;;;20.20;63.60;;;;;;5065903;28;20111;-56
2022/05/31 12:20:26;;;;;;;6.18;3.15;;;20.30;64.60;;;;;;5065771;28;20280;-56
2022/05/31 12:23:04;;;;;;;4.60;3.05;;;20.20;62.60;;;;;;5060709;28;20475;-57
2022/05/31 12:25:42;;;;;;;4.60;2.70;;;20.00;60.90;;;;;;5062314;28;20045;-56
2022/05/31 12:28:16;;;;;;;5.63;2.80;;;19.80;62.10;;;;;;5069149;28;20047;-56
2022/05/31 12:30:55;;;;;;;4.30;2.70;;;19.70;62.10;;;;;;5067740;28;20048;-56
2022/05/31 12:33:46;;;;;;;6.28;2.50;;;19.50;61.30;;;;;;5063339;28;20409;-56
2022/05/31 12:36:22;;;;;;;4.55;2.20;;;19.20;61.70;;;;;;5058804;28;20059;-56
2022/05/31 12:38:56;;;;;;;8.40;2.70;;;19.00;63.00;;;;;;5062874;28;20044;-56
2022/05/31 12:41:31;;;;;;;4.10;2.40;;;18.90;62.90;;;;;;5067648;28;20055;-54
2022/05/31 12:43:59;;;;;;;4.25;2.53;;;18.70;62.80;;;;;;5068272;28;20135;-54
2022/05/31 12:46:33;;;;;;;5.50;2.40;;;18.50;62.80;;;;;;5063774;28;20190;-55
2022/05/31 12:49:03;;;;;;;5.88;2.67;;;18.40;63.00;;;;;;5065279;28;20415;-54
2022/05/31 12:51:29;;;;;;;5.18;2.40;;;18.30;64.00;;;;;;5067482;28;20047;-53
2022/05/31 12:54:04;;;;;;;6.07;2.60;;;18.20;64.80;;;;;;5065795;28;20055;-54
2022/05/31 12:56:34;;;;;;;6.32;2.35;;;18.10;64.60;;;;;;5076334;28;20120;-55
2022/05/31 12:59:01;;;;;;;4.20;2.47;;;18.00;64.60;;;;;;5066833;28;20048;-54
2022/05/31 13:01:27;;;;;;;4.00;2.70;;;18.00;65.30;;;;;;5064517;28;20052;-55
2022/05/31 13:04:18;;;;;;;5.00;2.92;;;18.00;66.50;;;;;;5064809;28;20048;-51
2022/05/31 13:07:13;;;;;;;4.53;2.78;;;18.00;64.80;;;;;;5067606;28;20121;-56
2022/05/31 13:09:46;;;;;;;4.57;2.90;;;17.90;65.30;;;;;;5066999;28;20036;-52
2022/05/31 13:21:03;;;;;;;7.60;2.85;;;18.00;66.70;;;;;;5063057;28;20490;-54
2022/05/31 13:23:37;;;;;;;4.18;2.60;;;18.00;66.90;;;;;;5062903;28;20044;-55
2022/05/31 13:26:17;;;;;;;5.85;3.00;;;18.10;66.90;;;;;;5070717;28;20040;-53
2022/05/31 13:28:53;;;;;;;6.32;3.10;;;18.10;66.10;;;;;;5068692;28;20048;-54
2022/05/31 13:31:22;;;;;;;5.35;2.80;;;18.20;65.60;;;;;;5069118;28;20044;-54
2022/05/31 13:33:59;;;;;;;5.20;2.70;;;18.10;65.60;;;;;;5063600;28;20065;-54
2022/05/31 13:36:31;;;;;;;6.82;3.22;;;18.30;65.30;;;;;;5067239;28;20060;-53
2022/05/31 13:39:03;;;;;;;5.10;2.97;;;18.30;65.00;;;;;;5067385;28;20055;-55
2022/05/31 13:41:30;;;;;;;4.63;2.70;;;18.30;64.30;;;;;;5070387;28;20657;-53
2022/05/31 13:44:06;;;;;;;69.85;6.10;;;18.40;64.60;;;;;;5061532;28;20490;-54
2022/05/31 13:46:35;;;;;;;5.57;2.95;;;18.40;65.10;;;;;;5064564;28;20055;-54